.
WxDataArchive / Data Records for 2013-06-12
2013-06-11 June 2013 2013-06-13

Data Records for Wednesday, 12 June 2013

Time	Temp	Chill	HIndex	Humid	Dewpt	 Wind 	HiWind	WindDir	Rain 	Barom 
-----	----	-----	------	-----	-----	------	------	-------	-----	----- 
00:00	69.3	69.3	69.3	81	63.2	0	0	---	0.00	29.854 
00:05	69.1	69.1	69.1	81	63.0	0	0	---	0.00	29.854 
00:10	68.9	68.9	68.9	81	62.8	0	0	---	0.00	29.854 
00:15	68.8	68.8	68.8	81	62.7	0	0	---	0.00	29.850 
00:20	68.8	68.8	68.8	82	63.1	0	0	---	0.00	29.850 
00:25	68.6	68.6	68.6	83	63.2	0	0	---	0.00	29.850 
00:30	68.4	68.4	68.4	83	63.0	0	0	---	0.00	29.851 
00:35	68.3	68.3	68.3	84	63.3	0	0	---	0.00	29.851 
00:40	68.3	68.3	68.3	84	63.3	0	0	---	0.00	29.851 
00:45	68.1	68.1	68.1	84	63.1	0	0	---	0.00	29.855 
00:50	68.1	68.1	68.1	84	63.1	0	0	---	0.00	29.855 
00:55	67.9	67.9	67.9	84	62.9	0	0	---	0.00	29.855 
01:00	67.9	67.9	67.9	84	62.9	0	0	---	0.00	29.856 
01:05	67.8	67.8	67.8	85	63.1	0	0	---	0.00	29.856 
01:10	67.8	67.8	67.8	85	63.1	0	0	---	0.00	29.856 
01:15	67.6	67.6	67.6	85	62.9	0	0	---	0.00	29.850 
01:20	67.6	67.6	67.6	86	63.3	0	0	---	0.00	29.850 
01:25	67.4	67.4	67.4	86	63.1	0	0	---	0.00	29.850 
01:30	67.4	67.4	67.4	87	63.4	0	0	---	0.00	29.834 
01:35	67.4	67.4	67.4	87	63.4	0	0	---	0.00	29.834 
01:40	67.4	67.4	67.4	87	63.4	0	0	---	0.00	29.834 
01:45	67.4	67.4	67.4	87	63.4	0	0	---	0.00	29.838 
01:50	67.4	67.4	67.4	87	63.4	0	0	---	0.00	29.838 
01:55	67.4	67.4	67.4	87	63.4	0	0	---	0.00	29.838 
02:00	67.4	67.4	67.4	88	63.7	0	0	---	0.00	29.834 
02:05	67.4	67.4	67.4	88	63.7	0	0	---	0.00	29.834 
02:10	67.4	67.4	67.4	88	63.7	0	0	---	0.00	29.834 
02:15	67.6	67.6	67.6	88	63.9	0	0	---	0.00	29.825 
02:20	67.4	67.4	67.4	88	63.7	0	0	---	0.00	29.825 
02:25	67.4	67.4	67.4	88	63.7	0	0	---	0.00	29.825 
02:30	67.4	67.4	67.4	88	63.7	0	0	---	0.00	29.823 
02:35	67.4	67.4	67.4	88	63.7	0	0	---	0.00	29.823 
02:40	67.3	67.3	67.3	88	63.6	0	0	---	0.00	29.823 
02:45	67.1	67.1	67.1	88	63.4	0	0	---	0.00	29.824 
02:50	67.3	67.3	67.3	89	63.9	0	0	---	0.00	29.824 
02:55	67.3	67.3	67.3	89	63.9	0	0	---	0.00	29.824 
03:00	67.3	67.3	67.3	89	63.9	0	0	---	0.00	29.837 
03:05	67.3	67.3	67.3	89	63.9	0	0	---	0.00	29.837 
03:10	67.1	67.1	67.1	89	63.7	0	0	---	0.00	29.837 
03:15	67.1	67.1	67.1	90	64.1	0	0	---	0.00	29.833 
03:20	66.9	66.9	66.9	90	63.9	0	0	---	0.00	29.833 
03:25	66.8	66.8	66.8	90	63.8	0	0	---	0.00	29.833 
03:30	66.6	66.6	66.6	90	63.6	0	0	---	0.00	29.817 
03:35	66.6	66.6	66.6	90	63.6	0	0	---	0.00	29.817 
03:40	66.4	66.4	66.4	90	63.4	0	0	---	0.00	29.817 
03:45	66.3	66.3	66.3	90	63.3	0	0	---	0.00	29.837 
03:50	66.1	66.1	66.1	90	63.1	0	0	---	0.00	29.837 
03:55	66.1	66.1	66.1	91	63.4	0	0	---	0.00	29.837 
04:00	66.1	66.1	66.1	91	63.4	0	0	---	0.00	29.836 
04:05	66.1	66.1	66.1	91	63.4	0	0	---	0.00	29.836 
04:10	66.0	66.0	66.0	91	63.3	0	0	---	0.00	29.836 
04:15	66.0	66.0	66.0	91	63.3	0	0	---	0.00	29.833 
04:20	65.8	65.8	65.8	91	63.1	0	0	---	0.00	29.833 
04:25	65.8	65.8	65.8	92	63.4	0	0	---	0.00	29.833 
04:30	65.8	65.8	65.8	92	63.4	0	0	---	0.00	29.852 
04:35	65.8	65.8	65.8	92	63.4	0	0	---	0.00	29.852 
04:40	65.8	65.8	65.8	92	63.4	0	0	---	0.00	29.852 
04:45	65.8	65.8	65.8	92	63.4	0	0	---	0.00	29.856 
04:50	65.8	65.8	65.8	92	63.4	0	0	---	0.00	29.856 
04:55	65.8	65.8	65.8	92	63.4	0	0	---	0.00	29.856 
05:00	65.8	65.8	65.8	92	63.4	0	0	---	0.00	29.862 
05:05	65.6	65.6	65.6	92	63.2	0	0	---	0.00	29.862 
05:10	65.6	65.6	65.6	92	63.2	0	0	---	0.00	29.862 
05:15	65.6	65.6	65.6	92	63.2	0	0	---	0.00	29.864 
05:20	65.5	65.5	65.5	92	63.1	0	0	---	0.00	29.864 
05:25	65.5	65.5	65.5	92	63.1	0	0	---	0.00	29.864 
05:30	65.3	65.3	65.3	92	62.9	0	0	---	0.00	29.865 
05:35	65.3	65.3	65.3	92	62.9	0	0	---	0.00	29.865 
05:40	65.2	65.2	65.2	92	62.8	0	0	---	0.00	29.865 
05:45	65.2	65.2	65.2	92	62.8	0	0	---	0.00	29.863 
05:50	65.2	65.2	65.2	93	63.1	0	0	---	0.00	29.863 
05:55	65.2	65.2	65.2	93	63.1	0	0	---	0.00	29.863 
06:00	65.3	65.3	65.3	93	63.2	0	0	---	0.00	29.863 
06:05	65.3	65.3	65.3	93	63.2	0	0	---	0.00	29.863 
06:10	65.3	65.3	65.3	93	63.2	0	0	---	0.00	29.863 
06:15	65.5	65.5	65.5	93	63.4	0	0	---	0.00	29.855 
06:20	65.6	65.6	65.6	93	63.5	0	0	---	0.00	29.855 
06:25	65.6	65.6	65.6	93	63.5	0	0	---	0.00	29.855 
06:30	65.6	65.6	65.6	93	63.5	0	0	---	0.00	29.843 
06:35	65.8	65.8	65.8	93	63.7	0	0	---	0.00	29.843 
06:40	66.0	66.0	66.0	93	63.9	0	0	---	0.00	29.843 
06:45	66.0	66.0	66.0	94	64.2	0	0	---	0.00	29.855 
06:50	66.1	66.1	66.1	93	64.0	0	0	---	0.00	29.855 
06:55	66.1	66.1	66.1	93	64.0	0	0	---	0.00	29.855 
07:00	66.1	66.1	66.1	93	64.0	0	0	---	0.00	29.849 
07:05	66.1	66.1	66.1	93	64.0	0	0	---	0.00	29.849 
07:10	66.1	66.1	66.1	93	64.0	0	1	292	0.00	29.849 
07:15	66.3	66.3	66.3	93	64.2	0	1	292	0.00	29.842 
07:20	66.3	66.3	66.3	93	64.2	0	1	292	0.00	29.842 
07:25	66.4	66.4	66.4	93	64.3	0	0	---	0.00	29.842 
07:30	66.6	66.6	66.6	93	64.5	0	1	292	0.00	29.837 
07:35	66.8	66.8	66.8	93	64.7	0	0	---	0.00	29.837 
07:40	67.1	67.1	67.1	93	65.0	0	0	---	0.00	29.837 
07:45	67.6	67.6	67.6	93	65.5	0	0	---	0.00	29.852 
07:50	68.1	68.1	68.1	93	66.0	0	1	292	0.00	29.852 
07:55	68.3	68.3	68.3	92	65.9	0	2	292	0.00	29.852 
08:00	68.8	68.8	68.8	92	66.4	0	0	---	0.00	29.852 
08:05	69.3	69.3	69.3	91	66.6	0	1	292	0.00	29.852 
08:10	69.4	69.4	69.4	90	66.3	0	0	---	0.00	29.852 
08:15	70.1	70.1	70.1	90	67.0	0	0	---	0.00	29.860 
08:20	70.8	70.8	70.8	89	67.4	0	0	---	0.00	29.860 
08:25	71.5	71.5	71.5	87	67.4	0	1	292	0.00	29.860 
08:30	72.0	72.0	72.0	85	67.2	0	1	292	0.00	29.866 
08:35	72.7	72.7	72.7	83	67.2	0	2	292	0.00	29.866 
08:40	73.2	73.2	73.2	82	67.4	0	1	292	0.00	29.866 
08:45	73.5	73.5	73.5	81	67.3	0	1	292	0.00	29.882 
08:50	74.0	74.0	74.0	79	67.1	0	1	292	0.00	29.882 
08:55	74.0	74.0	74.0	79	67.1	0	1	292	0.00	29.882 
09:00	74.2	74.2	74.2	80	67.6	0	0	---	0.00	29.882 
09:05	74.6	74.6	74.6	78	67.3	0	1	292	0.00	29.882 
09:10	74.9	74.9	74.9	78	67.6	0	1	292	0.00	29.882 
09:15	75.4	75.4	76.4	77	67.7	0	1	292	0.00	29.870 
09:20	76.0	76.0	77.2	77	68.3	0	1	292	0.00	29.870 
09:25	76.3	76.3	77.7	76	68.2	0	1	292	0.00	29.870 
09:30	76.3	76.3	77.7	76	68.2	0	3	292	0.00	29.866 
09:35	76.7	76.7	78.3	75	68.2	0	2	292	0.00	29.866 
09:40	76.7	76.7	78.3	74	67.8	0	2	292	0.00	29.866 
09:45	76.7	76.7	78.3	75	68.2	0	0	---	0.00	29.864 
09:50	76.7	76.7	78.3	75	68.2	0	1	292	0.00	29.864 
09:55	76.5	76.5	78.0	75	68.0	0	1	292	0.00	29.864 
10:00	76.5	76.5	78.0	76	68.4	0	1	292	0.00	29.859 
10:05	77.0	77.0	78.7	76	68.8	0	2	292	0.00	29.859 
10:10	77.4	77.4	79.3	74	68.4	0	1	292	0.00	29.859 
10:15	77.4	77.4	79.3	73	68.0	0	2	292	0.00	29.868 
10:20	77.6	77.6	79.6	74	68.6	0	1	292	0.00	29.868 
10:25	77.6	77.6	79.5	73	68.2	0	2	292	0.00	29.868 
10:30	77.4	77.4	79.3	73	68.0	0	2	292	0.00	29.871 
10:35	77.4	77.4	79.3	74	68.4	0	1	292	0.00	29.871 
10:40	77.0	77.0	78.7	74	68.1	0	2	292	0.00	29.871 
10:45	76.8	76.8	78.4	75	68.3	0	1	292	0.00	29.874 
10:50	76.7	76.7	78.2	76	68.5	0	2	292	0.00	29.874 
10:55	76.7	76.7	78.2	76	68.5	0	2	292	0.00	29.874 
11:00	76.7	76.7	78.2	76	68.5	0	2	292	0.00	29.862 
11:05	77.4	77.4	79.3	75	68.8	0	2	292	0.00	29.862 
11:10	78.1	78.1	80.3	73	68.7	0	3	292	0.00	29.862 
11:15	78.3	78.3	80.5	72	68.5	1	4	292	0.00	29.853 
11:20	78.3	78.3	80.6	73	68.9	1	2	292	0.00	29.853 
11:25	78.3	78.3	80.6	74	69.3	1	3	270	0.00	29.853 
11:30	78.3	78.3	80.6	74	69.3	0	3	270	0.00	29.844 
11:35	78.6	78.6	81.1	74	69.6	0	3	202	0.00	29.844 
11:40	79.0	79.0	81.7	74	70.0	0	1	202	0.00	29.844 
11:45	79.2	79.2	81.9	72	69.4	1	4	112	0.00	29.826 
11:50	79.6	79.6	82.6	73	70.2	1	2	112	0.00	29.826 
11:55	79.9	79.9	83.1	73	70.4	0	1	112	0.00	29.826 
12:00	80.3	80.3	83.7	72	70.4	0	1	112	0.00	29.868 
12:05	80.7	80.7	84.3	71	70.4	1	2	112	0.00	29.868 
12:10	81.2	81.2	85.3	72	71.3	0	2	112	0.00	29.868 
12:15	81.6	81.6	85.3	68	70.0	1	3	112	0.00	29.852 
12:20	81.8	81.8	85.7	68	70.2	1	3	112	0.00	29.852 
12:25	82.2	82.2	86.4	68	70.6	0	2	112	0.00	29.852 
12:30	82.4	82.4	86.5	67	70.3	0	2	112	0.00	29.856 
12:35	82.6	82.6	86.6	66	70.1	0	2	112	0.00	29.856 
12:40	82.8	82.8	87.2	67	70.7	0	1	112	0.00	29.856 
12:45	82.6	82.6	86.4	65	69.6	0	2	112	0.00	29.831 
12:50	82.6	82.6	86.6	66	70.1	1	3	112	0.00	29.831 
12:55	83.0	83.0	87.6	67	70.9	1	3	112	0.00	29.831 
13:00	83.4	83.4	88.1	66	70.8	2	5	112	0.00	29.802 
13:05	83.6	83.6	88.5	66	71.0	1	4	90	0.00	29.802 
13:10	83.8	83.8	88.6	65	70.7	1	3	0	0.00	29.802 
13:15	83.8	83.8	88.6	65	70.7	0	1	0	0.00	29.835 
13:20	83.6	83.6	88.2	65	70.6	0	2	0	0.00	29.835 
13:25	83.4	83.4	87.8	65	70.4	1	3	0	0.00	29.835 
13:30	83.2	83.2	87.7	66	70.6	1	3	90	0.00	29.808 
13:35	83.2	83.2	88.0	67	71.1	0	2	90	0.00	29.808 
13:40	83.2	83.2	87.5	65	70.2	0	1	90	0.00	29.808 
13:45	83.2	83.2	87.5	65	70.2	1	3	90	0.00	29.789 
13:50	83.2	83.2	87.5	65	70.2	1	4	90	0.00	29.789 
13:55	83.4	83.4	88.1	66	70.8	0	2	90	0.00	29.789 
14:00	83.2	83.2	87.7	66	70.6	1	3	90	0.00	29.765 
14:05	83.2	83.2	87.7	66	70.6	1	2	90	0.00	29.765 
14:10	83.0	83.0	87.3	66	70.4	1	3	90	0.00	29.765 
14:15	83.0	83.0	87.9	68	71.3	1	5	90	0.00	29.772 
14:20	83.4	83.4	88.6	68	71.7	0	2	90	0.00	29.772 
14:25	84.0	84.0	89.8	68	72.3	0	1	90	0.00	29.772 
14:30	84.0	84.0	89.8	68	72.3	1	4	292	0.00	29.765 
14:35	84.0	84.0	89.8	68	72.3	1	2	315	0.00	29.765 
14:40	84.1	84.1	90.4	69	72.8	1	4	248	0.00	29.765 
14:45	84.3	84.3	89.5	65	71.2	1	5	68	0.00	29.755 
14:50	84.1	84.1	89.4	66	71.5	1	3	68	0.00	29.755 
14:55	84.1	84.1	89.4	66	71.5	1	3	315	0.00	29.755 
15:00	84.1	84.1	89.7	67	71.9	0	2	315	0.00	29.771 
15:05	84.1	84.1	89.1	65	71.0	2	5	68	0.00	29.771 
15:10	84.0	84.0	89.5	67	71.8	2	6	90	0.00	29.771 
15:15	83.6	83.6	88.7	67	71.5	1	3	202	0.00	29.712 
15:20	83.6	83.6	88.7	67	71.5	1	3	112	0.00	29.712 
15:25	83.6	83.6	88.7	67	71.5	1	4	90	0.00	29.712 
15:30	83.6	83.6	88.7	67	71.5	1	3	90	0.00	29.759 
15:35	83.4	83.4	88.4	67	71.3	1	4	90	0.00	29.759 
15:40	83.6	83.6	88.7	67	71.5	1	3	0	0.00	29.759 
15:45	83.8	83.8	89.4	68	72.1	1	3	338	0.00	29.740 
15:50	84.0	84.0	89.8	68	72.3	1	4	90	0.00	29.740 
15:55	84.7	84.7	91.0	67	72.5	0	2	112	0.00	29.740 
16:00	84.9	84.9	91.4	67	72.7	0	1	112	0.00	29.752 
16:05	85.7	85.7	92.3	65	72.5	0	2	112	0.00	29.752 
16:10	86.7	86.7	93.7	63	72.6	1	4	315	0.00	29.752 
16:15	87.2	87.2	93.1	59	71.1	1	4	315	0.00	29.743 
16:20	87.2	87.2	93.1	59	71.1	1	3	292	0.00	29.743 
16:25	87.6	87.6	93.9	59	71.5	1	3	292	0.00	29.743 
16:30	88.0	88.0	94.7	59	71.8	1	2	292	0.00	29.734 
16:35	88.0	88.0	95.1	60	72.3	0	3	292	0.00	29.734 
16:40	87.8	87.8	93.4	57	70.6	0	2	338	0.00	29.734 
16:45	87.6	87.6	93.0	57	70.4	1	4	315	0.00	29.739 
16:50	88.0	88.0	93.8	57	70.8	1	3	315	0.00	29.739 
16:55	88.2	88.2	93.8	56	70.5	1	4	315	0.00	29.739 
17:00	88.0	88.0	93.4	56	70.3	1	3	270	0.00	29.753 
17:05	88.4	88.4	94.2	56	70.7	1	3	270	0.00	29.753 
17:10	88.8	88.8	94.1	54	70.0	1	4	270	0.00	29.753 
17:15	88.4	88.4	94.2	56	70.7	2	4	270	0.00	29.754 
17:20	88.4	88.4	94.2	56	70.7	1	5	292	0.00	29.754 
17:25	88.4	88.4	94.2	56	70.7	1	3	292	0.00	29.754 
17:30	88.4	88.4	93.7	55	70.1	2	4	292	0.00	29.749 
17:35	88.6	88.6	93.7	54	69.8	1	3	270	0.00	29.749 
17:40	88.2	88.2	92.9	54	69.4	0	2	270	0.00	29.749 
17:45	87.8	87.8	92.6	55	69.6	1	3	270	0.00	29.739 
17:50	87.4	87.4	93.0	58	70.8	1	2	270	0.00	29.739 
17:55	87.2	87.2	92.3	57	70.1	0	2	270	0.00	29.739 
18:00	87.4	87.4	93.0	58	70.8	1	3	270	0.00	29.736 
18:05	87.6	87.6	92.6	56	69.9	2	5	270	0.00	29.736 
18:10	87.6	87.6	93.0	57	70.4	1	5	292	0.00	29.736 
18:15	87.6	87.6	93.0	57	70.4	0	2	292	0.00	29.720 
18:20	87.6	87.6	93.4	58	71.0	0	2	292	0.00	29.720 
18:25	87.6	87.6	93.0	57	70.4	0	2	292	0.00	29.720 
18:30	87.2	87.2	92.7	58	70.6	0	1	292	0.00	29.704 
18:35	87.0	87.0	92.3	58	70.4	0	1	292	0.00	29.704 
18:40	86.5	86.5	91.7	59	70.4	0	2	292	0.00	29.704 
18:45	86.1	86.1	91.3	60	70.6	0	1	292	0.00	29.700 
18:50	85.9	85.9	90.9	60	70.4	0	2	292	0.00	29.700 
18:55	85.9	85.9	91.3	61	70.9	0	1	292	0.00	29.700 
19:00	86.1	86.1	91.3	60	70.6	0	1	292	0.00	29.699 
19:05	86.1	86.1	91.3	60	70.6	0	1	292	0.00	29.699 
19:10	85.9	85.9	91.6	62	71.3	0	0	---	0.00	29.699 
19:15	85.7	85.7	90.9	61	70.7	0	1	292	0.00	29.692 
19:20	85.7	85.7	91.2	62	71.1	0	0	---	0.00	29.692 
19:25	85.5	85.5	90.8	62	71.0	0	1	292	0.00	29.692 
19:30	85.3	85.3	90.8	63	71.2	0	0	---	0.00	29.689 
19:35	85.3	85.3	91.2	64	71.7	0	1	292	0.00	29.689 
19:40	84.9	84.9	90.4	64	71.3	0	1	292	0.00	29.689 
19:45	84.7	84.7	89.6	63	70.7	0	1	292	0.00	29.678 
19:50	84.5	84.5	89.3	63	70.5	0	0	---	0.00	29.678 
19:55	84.5	84.5	89.6	64	71.0	0	0	---	0.00	29.678 
20:00	84.3	84.3	89.2	64	70.8	0	0	---	0.00	29.677 
20:05	84.3	84.3	89.2	64	70.8	0	2	292	0.00	29.677 
20:10	84.3	84.3	89.2	64	70.8	0	0	---	0.00	29.677 
20:15	84.3	84.3	89.5	65	71.2	0	0	---	0.00	29.690 
20:20	84.3	84.3	89.2	64	70.8	0	1	292	0.00	29.690 
20:25	84.1	84.1	88.8	64	70.6	0	1	292	0.00	29.690 
20:30	84.0	84.0	88.6	64	70.5	0	1	292	0.00	29.681 
20:35	84.0	84.0	88.9	65	70.9	0	1	292	0.00	29.681 
20:40	83.6	83.6	88.2	65	70.6	0	4	292	0.00	29.681 
20:45	83.6	83.6	88.2	65	70.6	0	3	292	0.00	29.668 
20:50	83.4	83.4	87.6	64	69.9	0	3	292	0.00	29.668 
20:55	83.4	83.4	87.6	64	69.9	0	1	292	0.00	29.668 
21:00	83.4	83.4	87.6	64	69.9	0	1	292	0.00	29.655 
21:05	83.2	83.2	87.2	64	69.7	0	1	292	0.00	29.655 
21:10	83.0	83.0	87.1	65	70.0	0	1	292	0.00	29.655 
21:15	82.8	82.8	86.7	65	69.8	0	1	292	0.00	29.657 
21:20	82.6	82.6	87.1	68	70.9	0	1	292	0.01	29.657 
21:25	81.8	81.8	86.5	72	71.9	0	1	292	0.02	29.657 
21:30	80.5	80.5	84.5	75	71.8	0	0	---	0.01	29.641 
21:35	79.8	79.8	83.8	80	73.1	0	1	292	0.01	29.641 
21:40	79.0	79.0	82.3	82	73.0	0	0	---	0.00	29.641 
21:45	78.3	78.3	81.0	84	73.1	0	0	---	0.00	29.628 
21:50	77.9	77.9	80.2	85	73.0	0	1	292	0.00	29.628 
21:55	77.6	77.6	79.6	87	73.4	0	0	---	0.00	29.628 
22:00	77.4	77.4	79.1	88	73.6	1	5	292	0.00	29.629 
22:05	74.7	74.7	74.7	80	68.1	6	11	270	0.01	29.629 
22:10	71.8	71.8	71.8	80	65.3	5	14	292	0.03	29.629 
22:15	68.9	68.9	68.9	81	62.8	5	14	315	0.01	29.636 
22:20	67.8	67.8	67.8	84	62.8	3	6	315	0.02	29.636 
22:25	66.8	66.8	66.8	85	62.1	2	6	338	0.01	29.636 
22:30	66.4	66.4	66.4	87	62.4	1	6	135	0.01	29.652 
22:35	66.6	66.6	66.6	87	62.6	3	10	90	0.00	29.652 
22:40	66.6	66.6	66.6	87	62.6	0	2	90	0.01	29.652 
22:45	66.8	66.8	66.8	87	62.8	2	6	90	0.00	29.594 
22:50	66.9	66.9	66.9	87	62.9	2	6	292	0.00	29.594 
22:55	67.3	67.3	67.3	89	63.9	6	11	292	0.13	29.594 
23:00	66.9	66.9	66.9	90	63.9	7	12	292	0.24	29.681 
23:05	66.6	66.6	66.6	92	64.2	4	8	270	0.22	29.681 
23:10	66.3	66.3	66.3	92	63.9	3	7	292	0.09	29.681 
23:15	66.1	66.1	66.1	92	63.7	1	5	292	0.02	29.582 
23:20	65.8	65.8	65.8	93	63.7	2	11	270	0.02	29.582 
23:25	66.0	66.0	66.0	93	63.9	3	9	270	0.01	29.582 
23:30	66.3	66.3	66.3	93	64.2	2	5	270	0.03	29.717 
23:35	66.0	66.0	66.0	93	63.9	2	6	270	0.04	29.717 
23:40	65.8	65.8	65.8	93	63.7	0	2	292	0.01	29.717 
23:45	65.8	65.8	65.8	94	64.0	1	5	270	0.01	29.661 
23:50	65.8	65.8	65.8	94	64.0	0	3	270	0.01	29.661 
23:55	66.0	66.0	66.0	94	64.2	2	3	270	0.01	29.661 

CoCoRaHS
IN-AL-39
A2 Web Hosting
Creative Commons License
GoDaddy
search engine by freefind advanced

loaded 2018-11-19 19:59:14 • last modified 2010-11-18 10:43:29
Privacy PolicyDisclaimer
• wx.awcolley.com is powered by PmWiki v.2002016 •
• all content (unless otherwise noted) © 2018 A W Colley